createdAt,value
2023-02-06T00:00:48.644Z,16.90
2023-02-06T00:03:15.221Z,17.30
2023-02-06T00:05:41.657Z,16.25
2023-02-06T00:08:08.160Z,17.27
2023-02-06T00:10:34.885Z,19.23
2023-02-06T00:13:01.329Z,19.10
2023-02-06T00:15:27.744Z,19.77
2023-02-06T00:17:54.214Z,19.30
2023-02-06T00:20:20.741Z,20.77
2023-02-06T00:22:47.147Z,20.45
2023-02-06T00:25:13.549Z,21.25
2023-02-06T00:27:39.936Z,21.92
2023-02-06T00:30:06.781Z,21.98
2023-02-06T00:32:34.677Z,18.75
2023-02-06T00:35:01.262Z,20.52
2023-02-06T00:37:27.732Z,20.77
2023-02-06T00:39:54.116Z,20.58
2023-02-06T00:42:20.685Z,22.40
2023-02-06T00:44:47.069Z,21.83
2023-02-06T00:47:15.053Z,23.40
2023-02-06T00:49:41.472Z,21.85
2023-02-06T00:52:07.876Z,20.65
2023-02-06T00:54:34.305Z,20.50
2023-02-06T00:57:00.713Z,20.48
2023-02-06T00:59:27.096Z,20.45
2023-02-06T01:01:53.557Z,21.67
2023-02-06T01:04:20.021Z,21.02
2023-02-06T01:06:46.411Z,21.92
2023-02-06T01:09:12.811Z,22.02
2023-02-06T01:11:39.202Z,20.67
2023-02-06T01:14:05.665Z,21.15
2023-02-06T01:16:32.054Z,21.83
2023-02-06T01:18:58.507Z,22.83
2023-02-06T01:21:25.684Z,21.30
2023-02-06T01:23:54.369Z,20.10
2023-02-06T01:26:24.104Z,20.80
2023-02-06T01:28:50.971Z,20.58
2023-02-06T01:31:26.000Z,21.75
2023-02-06T01:33:52.550Z,20.23
2023-02-06T01:36:20.110Z,20.95
2023-02-06T01:38:47.898Z,19.67
2023-02-06T01:41:16.113Z,19.02
2023-02-06T01:43:45.643Z,19.33
2023-02-06T01:46:12.200Z,20.05
2023-02-06T01:48:42.314Z,21.55
2023-02-06T01:51:14.585Z,19.33
2023-02-06T01:53:44.608Z,19.85
2023-02-06T01:56:13.304Z,18.83
2023-02-06T01:58:44.858Z,17.13
2023-02-06T02:03:42.548Z,18.60
2023-02-06T02:06:13.420Z,16.33
2023-02-06T02:08:42.864Z,15.60
2023-02-06T02:11:16.074Z,15.90
2023-02-06T02:13:42.791Z,14.40
2023-02-06T02:16:22.862Z,13.73
2023-02-06T02:19:27.209Z,13.90
2023-02-06T02:22:41.105Z,12.40
2023-02-06T02:25:19.580Z,11.25
2023-02-06T02:28:26.883Z,12.50
2023-02-06T02:31:38.884Z,10.85
2023-02-06T02:34:39.257Z,12.32
2023-02-06T02:37:15.922Z,10.60
2023-02-06T02:39:54.898Z,10.30
2023-02-06T02:42:30.515Z,11.25
2023-02-06T02:45:09.568Z,10.02
2023-02-06T02:47:45.227Z,10.52
2023-02-06T03:08:16.668Z,9.73
2023-02-06T03:10:58.862Z,9.15
2023-02-06T03:13:48.853Z,9.13
2023-02-06T03:16:29.749Z,8.82
2023-02-06T03:19:19.047Z,9.40
2023-02-06T03:21:47.303Z,9.38
2023-02-06T03:24:18.141Z,9.25
2023-02-06T03:26:48.410Z,9.15
2023-02-06T03:29:16.839Z,8.88
2023-02-06T03:31:54.097Z,8.77
2023-02-06T03:34:29.102Z,8.82
2023-02-06T03:36:55.661Z,8.75
2023-02-06T03:39:22.956Z,9.77
2023-02-06T03:41:49.944Z,8.73
2023-02-06T03:44:22.330Z,9.35
2023-02-06T03:46:52.336Z,7.80
2023-02-06T03:49:20.765Z,6.88
2023-02-06T03:52:13.105Z,7.45
2023-02-06T03:54:45.403Z,8.05
2023-02-06T03:57:14.165Z,8.30
2023-02-06T03:59:40.756Z,7.93
2023-02-06T04:02:07.926Z,8.32
2023-02-06T04:04:38.394Z,7.78
2023-02-06T04:07:12.849Z,7.47
2023-02-06T04:09:40.330Z,8.18
2023-02-06T04:12:06.868Z,7.65
2023-02-06T04:14:33.393Z,8.57
2023-02-06T04:16:59.813Z,8.73
2023-02-06T04:19:26.201Z,7.70
2023-02-06T04:21:52.606Z,8.27
2023-02-06T04:24:18.997Z,7.55
2023-02-06T04:26:45.443Z,7.70
2023-02-06T04:29:12.775Z,7.80
2023-02-06T04:31:40.182Z,7.78
2023-02-06T04:34:06.648Z,8.48
2023-02-06T04:36:33.438Z,7.13
2023-02-06T04:38:59.963Z,7.55
2023-02-06T04:41:26.381Z,7.85
2023-02-06T04:43:52.780Z,8.00
2023-02-06T04:46:19.264Z,8.25
2023-02-06T04:48:45.700Z,8.02
2023-02-06T04:51:12.089Z,8.02
2023-02-06T04:53:38.495Z,8.60
2023-02-06T04:56:09.788Z,7.47
2023-02-06T04:58:36.716Z,7.60
2023-02-06T05:01:03.133Z,7.70
2023-02-06T05:03:30.378Z,7.43
2023-02-06T05:05:59.730Z,8.10
2023-02-06T05:08:26.481Z,8.52
2023-02-06T05:10:52.905Z,8.38
2023-02-06T05:13:19.804Z,9.13
2023-02-06T05:15:46.423Z,8.40
2023-02-06T05:18:12.988Z,8.90
2023-02-06T05:20:39.412Z,8.05
2023-02-06T05:23:05.858Z,7.95
2023-02-06T05:25:32.394Z,8.63
2023-02-06T05:27:58.846Z,8.57
2023-02-06T05:30:25.265Z,7.68
2023-02-06T05:32:51.714Z,8.95
2023-02-06T05:35:18.151Z,9.60
2023-02-06T05:37:44.692Z,8.25
2023-02-06T05:40:11.622Z,9.18
2023-02-06T05:42:38.028Z,9.85
2023-02-06T05:45:04.632Z,9.35
2023-02-06T05:47:31.066Z,10.00
2023-02-06T05:49:57.514Z,9.95
2023-02-06T05:52:23.958Z,9.68
2023-02-06T05:54:50.392Z,9.75
2023-02-06T05:57:16.859Z,11.05
2023-02-06T05:59:43.261Z,9.38
2023-02-06T06:02:09.720Z,9.63
2023-02-06T06:04:36.142Z,10.68
2023-02-06T06:07:03.095Z,10.27
2023-02-06T06:09:29.522Z,10.32
2023-02-06T06:11:55.945Z,10.30
2023-02-06T06:14:22.364Z,10.57
2023-02-06T06:16:48.888Z,10.60
2023-02-06T06:19:15.464Z,10.75
2023-02-06T06:21:41.856Z,10.48
2023-02-06T06:24:08.248Z,11.43
2023-02-06T06:26:34.640Z,10.43
2023-02-06T06:29:01.044Z,9.63
2023-02-06T06:31:27.471Z,10.23
2023-02-06T06:33:54.225Z,10.68
2023-02-06T06:36:20.711Z,11.93
2023-02-06T06:38:47.127Z,10.95
2023-02-06T06:41:13.614Z,12.13
2023-02-06T06:43:40.154Z,13.85
2023-02-06T06:46:06.630Z,12.35
2023-02-06T06:48:33.146Z,11.35
2023-02-06T06:50:59.565Z,11.80
2023-02-06T06:53:25.960Z,11.85
2023-02-06T06:55:52.355Z,11.52
2023-02-06T06:58:18.757Z,12.65
2023-02-06T07:00:45.586Z,11.63
2023-02-06T07:03:12.423Z,11.27
2023-02-06T07:05:38.914Z,13.27
2023-02-06T07:08:05.438Z,12.18
2023-02-06T07:10:31.841Z,12.05
2023-02-06T07:12:58.261Z,12.82
2023-02-06T07:15:24.682Z,13.27
2023-02-06T07:17:51.109Z,13.40
2023-02-06T07:20:17.578Z,12.65
2023-02-06T07:22:44.018Z,12.70
2023-02-06T07:25:21.056Z,12.70
2023-02-06T07:27:47.656Z,12.18
2023-02-06T07:30:14.460Z,13.30
2023-02-06T07:32:40.872Z,14.30
2023-02-06T07:35:07.608Z,13.15
2023-02-06T07:37:33.999Z,13.55
2023-02-06T07:40:00.382Z,13.88
2023-02-06T07:42:26.815Z,12.45
2023-02-06T07:44:57.946Z,11.75
2023-02-06T07:47:24.332Z,12.98
2023-02-06T07:49:50.741Z,13.52
2023-02-06T07:52:17.184Z,13.18
2023-02-06T07:54:43.574Z,13.85
2023-02-06T07:57:09.976Z,14.38
2023-02-06T07:59:36.389Z,14.07
2023-02-06T08:02:02.910Z,14.65
2023-02-06T08:04:35.066Z,13.73
2023-02-06T08:07:02.766Z,14.50
2023-02-06T08:09:29.475Z,15.38
2023-02-06T08:11:55.885Z,15.80
2023-02-06T08:14:22.391Z,15.85
2023-02-06T08:16:49.795Z,13.50
2023-02-06T08:19:16.274Z,15.18
2023-02-06T08:21:42.682Z,14.23
2023-02-06T08:24:11.849Z,15.20
2023-02-06T08:26:38.878Z,15.52
2023-02-06T08:29:08.010Z,15.82
2023-02-06T08:31:37.867Z,14.68
2023-02-06T08:34:05.630Z,15.50
2023-02-06T08:36:32.993Z,15.32
2023-02-06T08:39:00.815Z,16.70
2023-02-06T08:41:30.716Z,15.00
2023-02-06T08:43:59.495Z,16.08
2023-02-06T08:46:28.782Z,16.10
2023-02-06T08:48:56.743Z,16.35
2023-02-06T08:51:23.457Z,17.23
2023-02-06T08:53:49.882Z,17.45
2023-02-06T08:56:16.284Z,16.42
2023-02-06T08:58:42.754Z,17.38
2023-02-06T09:01:14.341Z,17.33
2023-02-06T09:03:41.802Z,18.75
2023-02-06T09:06:10.543Z,20.63
2023-02-06T09:08:38.322Z,19.50
2023-02-06T09:11:10.420Z,19.15
2023-02-06T09:13:37.830Z,17.60
2023-02-06T09:16:05.616Z,17.30
2023-02-06T09:18:32.140Z,17.83
2023-02-06T09:21:04.876Z,17.95
2023-02-06T09:23:31.325Z,16.48
2023-02-06T09:25:57.800Z,19.23
2023-02-06T09:28:24.340Z,17.80
2023-02-06T09:30:50.936Z,18.65
2023-02-06T09:33:17.393Z,17.65
2023-02-06T09:35:43.891Z,18.50
2023-02-06T09:38:10.282Z,19.15
2023-02-06T09:40:37.149Z,18.83
2023-02-06T09:43:03.908Z,20.58
2023-02-06T09:45:31.858Z,18.35
2023-02-06T09:48:16.200Z,19.15
2023-02-06T09:50:55.653Z,20.48
2023-02-06T09:53:34.146Z,20.50
2023-02-06T09:56:19.616Z,21.42
2023-02-06T09:58:57.354Z,21.98
2023-02-06T10:01:38.747Z,21.23
2023-02-06T10:04:29.847Z,22.63
2023-02-06T10:07:16.993Z,21.13
2023-02-06T10:10:06.631Z,22.38
2023-02-06T10:12:42.476Z,22.73
2023-02-06T10:15:17.360Z,24.17
2023-02-06T10:17:52.147Z,22.00
2023-02-06T10:20:26.277Z,21.90
2023-02-06T10:23:10.501Z,21.23
2023-02-06T10:25:42.344Z,22.08
2023-02-06T10:28:17.623Z,20.77
2023-02-06T10:30:59.367Z,22.38
2023-02-06T10:33:36.104Z,22.52
2023-02-06T10:36:25.563Z,20.95
2023-02-06T10:39:13.627Z,22.15
2023-02-06T10:41:55.842Z,21.13
2023-02-06T10:44:35.942Z,21.48
2023-02-06T10:47:04.596Z,20.80
2023-02-06T10:49:39.138Z,20.42
2023-02-06T10:52:24.059Z,19.52
2023-02-06T10:54:57.494Z,20.52
2023-02-06T10:57:28.481Z,20.17
2023-02-06T10:59:59.946Z,20.08
2023-02-06T11:03:06.221Z,19.98
2023-02-06T11:05:33.858Z,18.83
2023-02-06T11:08:25.228Z,18.65
2023-02-06T11:13:29.676Z,18.48
2023-02-06T11:16:01.326Z,17.85
2023-02-06T11:18:59.879Z,17.52
2023-02-06T11:21:41.493Z,17.48
2023-02-06T11:24:14.076Z,16.30
2023-02-06T11:26:42.786Z,18.33
2023-02-06T11:29:16.533Z,17.75
2023-02-06T11:31:46.331Z,17.10
2023-02-06T11:34:28.109Z,19.15
2023-02-06T11:36:57.650Z,19.50
2023-02-06T11:39:30.577Z,18.38
2023-02-06T11:42:05.473Z,19.13
2023-02-06T11:44:40.796Z,19.00
2023-02-06T11:47:35.513Z,19.08
2023-02-06T11:50:28.381Z,22.05
2023-02-06T11:53:00.241Z,20.05
2023-02-06T11:55:30.636Z,20.10
2023-02-06T11:58:12.088Z,18.85
2023-02-06T12:00:40.746Z,19.95
2023-02-06T12:03:27.230Z,18.73
2023-02-06T12:05:55.287Z,17.90
2023-02-06T12:08:53.181Z,18.67
2023-02-06T12:11:35.390Z,18.25
2023-02-06T12:14:09.637Z,19.55
2023-02-06T12:16:39.757Z,20.55
2023-02-06T12:19:14.174Z,20.10
2023-02-06T12:21:45.228Z,21.15
2023-02-06T12:27:04.042Z,19.63
2023-02-06T12:29:41.738Z,19.67
2023-02-06T12:32:22.834Z,20.60
2023-02-06T12:34:55.843Z,19.17
2023-02-06T12:37:39.730Z,20.90
2023-02-06T12:40:34.978Z,20.27
2023-02-06T12:43:06.641Z,20.85
2023-02-06T12:45:42.010Z,21.75
2023-02-06T12:48:17.553Z,21.35
2023-02-06T12:50:56.765Z,23.50
2023-02-06T12:53:35.236Z,23.40
2023-02-06T12:56:24.308Z,23.15
2023-02-06T12:59:06.477Z,23.10
2023-02-06T13:01:46.790Z,24.55
2023-02-06T13:04:18.108Z,23.77
2023-02-06T13:06:50.833Z,23.65
2023-02-06T13:09:28.805Z,22.95
2023-02-06T13:12:26.381Z,24.58
2023-02-06T13:14:56.402Z,23.73
2023-02-06T13:17:33.602Z,24.85
2023-02-06T13:20:09.909Z,23.63
2023-02-06T13:22:44.773Z,23.90
2023-02-06T13:25:26.249Z,24.33
2023-02-06T13:27:53.664Z,23.02
2023-02-06T13:30:29.019Z,24.05
2023-02-06T13:32:58.733Z,24.85
2023-02-06T13:35:30.155Z,24.92
2023-02-06T13:38:22.857Z,26.27
2023-02-06T13:41:15.167Z,23.48
2023-02-06T13:43:47.682Z,25.70
2023-02-06T13:46:23.500Z,26.15
2023-02-06T13:49:31.720Z,25.50
2023-02-06T13:52:18.531Z,26.40
2023-02-06T13:55:20.254Z,25.58
2023-02-06T13:58:18.880Z,25.95
2023-02-06T14:00:47.750Z,25.35
2023-02-06T14:03:29.510Z,23.83
2023-02-06T14:06:20.625Z,25.70
2023-02-06T14:09:06.021Z,24.63
2023-02-06T14:12:17.969Z,25.58
2023-02-06T14:15:19.324Z,25.83
2023-02-06T14:21:02.390Z,23.98
2023-02-06T14:23:51.918Z,24.48
2023-02-06T14:26:46.845Z,25.48
2023-02-06T14:29:23.100Z,24.95
2023-02-06T14:32:26.920Z,24.88
2023-02-06T14:35:06.710Z,24.90
2023-02-06T14:38:05.776Z,23.60
2023-02-06T14:40:41.524Z,25.20
2023-02-06T14:43:15.151Z,26.33
2023-02-06T14:45:46.241Z,25.65
2023-02-06T14:48:56.798Z,25.20
2023-02-06T14:51:39.066Z,25.13
2023-02-06T14:54:26.383Z,24.38
2023-02-06T14:56:57.942Z,24.55
2023-02-06T14:59:25.064Z,25.70
2023-02-06T15:01:53.311Z,25.02
2023-02-06T15:04:23.455Z,26.25
2023-02-06T15:07:00.981Z,24.37
2023-02-06T15:09:30.629Z,27.50
2023-02-06T15:12:02.822Z,23.90
2023-02-06T15:14:32.596Z,26.02
2023-02-06T15:17:00.852Z,23.65
2023-02-06T15:19:30.134Z,25.02
2023-02-06T15:22:02.332Z,24.65
2023-02-06T15:24:51.330Z,25.05
2023-02-06T15:27:29.193Z,26.20
2023-02-06T15:29:56.804Z,23.23
2023-02-06T15:32:33.193Z,25.13
2023-02-06T15:35:01.022Z,24.83
2023-02-06T15:37:33.710Z,24.48
2023-02-06T15:40:06.817Z,23.13
2023-02-06T15:42:33.532Z,22.75
2023-02-06T15:45:00.612Z,23.02
2023-02-06T15:47:27.573Z,22.88
2023-02-06T15:49:54.243Z,21.23
2023-02-06T15:52:42.717Z,21.98
2023-02-06T15:55:27.462Z,20.88
2023-02-06T15:57:55.656Z,20.55
2023-02-06T16:00:27.470Z,19.33
2023-02-06T16:02:58.666Z,20.65
2023-02-06T16:05:37.268Z,18.35
2023-02-06T16:08:09.974Z,18.30
2023-02-06T16:10:38.528Z,18.55
2023-02-06T16:13:12.034Z,19.27
2023-02-06T16:15:40.144Z,18.35
2023-02-06T16:18:28.917Z,18.10
2023-02-06T16:21:17.976Z,17.75
2023-02-06T16:23:50.893Z,17.45
2023-02-06T16:26:19.011Z,16.85
2023-02-06T16:29:00.423Z,17.42
2023-02-06T16:31:29.575Z,17.25
2023-02-06T16:34:03.006Z,16.10
2023-02-06T16:36:32.042Z,19.25
2023-02-06T16:39:04.079Z,16.48
2023-02-06T16:41:33.722Z,18.27
2023-02-06T16:44:01.308Z,17.65
2023-02-06T16:46:28.869Z,16.23
2023-02-06T16:48:57.959Z,17.50
2023-02-06T16:51:27.214Z,16.65
2023-02-06T16:53:53.864Z,17.92
2023-02-06T16:56:21.529Z,17.88
2023-02-06T16:58:48.599Z,17.48
2023-02-06T17:01:25.497Z,18.33
2023-02-06T17:03:52.991Z,19.10
2023-02-06T17:06:28.864Z,16.92
2023-02-06T17:09:01.933Z,18.05
2023-02-06T17:11:28.385Z,15.57
2023-02-06T17:13:54.794Z,18.50
2023-02-06T17:16:23.567Z,16.58
2023-02-06T17:18:50.893Z,17.73
2023-02-06T17:21:20.271Z,16.92
2023-02-06T17:23:48.753Z,17.55
2023-02-06T17:26:18.049Z,16.02
2023-02-06T17:28:45.340Z,18.08
2023-02-06T17:31:12.553Z,16.92
2023-02-06T17:33:39.340Z,17.27
2023-02-06T17:36:07.988Z,17.13
2023-02-06T17:38:34.505Z,16.77
2023-02-06T17:41:00.963Z,16.65
2023-02-06T17:43:30.647Z,16.05
2023-02-06T17:45:57.092Z,15.93
2023-02-06T17:48:23.516Z,17.10
2023-02-06T17:50:49.924Z,17.67
2023-02-06T17:53:16.474Z,16.40
2023-02-06T17:55:44.949Z,17.10
2023-02-06T17:58:11.356Z,17.23
2023-02-06T18:00:38.209Z,17.98
2023-02-06T18:03:05.346Z,16.25
2023-02-06T18:05:32.137Z,19.75
2023-02-06T18:07:58.552Z,19.02
2023-02-06T18:10:25.622Z,23.70
2023-02-06T18:12:52.402Z,21.95
2023-02-06T18:15:18.860Z,23.70
2023-02-06T18:17:45.287Z,22.55
2023-02-06T18:20:12.373Z,24.77
2023-02-06T18:22:41.207Z,22.52
2023-02-06T18:25:13.497Z,25.63
2023-02-06T18:27:41.442Z,24.50
2023-02-06T18:30:09.528Z,25.05
2023-02-06T18:32:37.502Z,23.88
2023-02-06T18:35:04.572Z,24.85
2023-02-06T18:37:30.994Z,25.13
2023-02-06T18:39:57.402Z,27.00
2023-02-06T18:42:42.643Z,27.27
2023-02-06T18:45:09.359Z,25.90
2023-02-06T18:47:35.820Z,26.90
2023-02-06T18:50:02.294Z,30.95
2023-02-06T18:52:29.026Z,28.98
2023-02-06T18:54:55.448Z,23.67
2023-02-06T18:57:21.869Z,23.88
2023-02-06T18:59:48.255Z,24.48
2023-02-06T19:02:14.745Z,25.08
2023-02-06T19:04:41.272Z,25.83
2023-02-06T19:07:08.883Z,22.60
2023-02-06T19:09:35.315Z,24.75
2023-02-06T19:12:01.737Z,23.63
2023-02-06T19:14:28.144Z,22.98
2023-02-06T19:16:54.960Z,23.02
2023-02-06T19:19:21.411Z,22.23
2023-02-06T19:21:47.938Z,20.77
2023-02-06T19:24:16.275Z,20.65
2023-02-06T19:26:42.677Z,19.13
2023-02-06T19:29:09.815Z,17.75
2023-02-06T19:31:39.105Z,19.00
2023-02-06T19:34:05.844Z,15.93
2023-02-06T19:36:32.640Z,16.65
2023-02-06T19:39:02.358Z,17.75
2023-02-06T19:41:31.119Z,15.90
2023-02-06T19:44:00.568Z,16.67
2023-02-06T19:46:27.530Z,16.08
2023-02-06T19:48:54.968Z,15.75
2023-02-06T19:51:27.374Z,15.63
2023-02-06T19:53:55.650Z,16.17
2023-02-06T19:56:25.404Z,16.20
2023-02-06T19:58:56.674Z,16.50
2023-02-06T20:01:24.006Z,17.05
2023-02-06T20:03:51.121Z,16.25
2023-02-06T20:06:18.188Z,17.30
2023-02-06T20:08:45.712Z,16.05
2023-02-06T20:11:17.740Z,16.20
2023-02-06T20:13:45.953Z,16.85
2023-02-06T20:16:18.938Z,16.45
2023-02-06T20:18:45.822Z,16.13
2023-02-06T20:21:23.592Z,17.30
2023-02-06T20:23:50.674Z,16.08
2023-02-06T20:26:18.943Z,15.85
2023-02-06T20:28:46.137Z,17.00
2023-02-06T20:31:13.301Z,15.57
2023-02-06T20:33:40.192Z,18.30
2023-02-06T20:36:13.175Z,16.50
2023-02-06T20:38:39.673Z,16.17
2023-02-06T20:41:07.617Z,16.17
2023-02-06T20:43:35.786Z,16.85
2023-02-06T20:46:07.207Z,15.60
2023-02-06T20:48:36.853Z,17.85
2023-02-06T20:51:05.585Z,15.77
2023-02-06T20:53:32.306Z,17.33
2023-02-06T20:55:58.973Z,16.48
2023-02-06T20:58:25.877Z,20.27
2023-02-06T21:00:52.956Z,21.98
2023-02-06T21:03:19.433Z,20.08
2023-02-06T21:05:55.276Z,17.58
2023-02-06T21:08:21.693Z,19.63
2023-02-06T21:10:52.524Z,16.90
2023-02-06T21:13:19.410Z,17.30
2023-02-06T21:15:51.850Z,18.70
2023-02-06T21:18:18.360Z,18.25
2023-02-06T21:20:44.799Z,18.25
2023-02-06T21:23:11.376Z,17.27
2023-02-06T21:25:38.185Z,15.93
2023-02-06T21:28:05.274Z,16.35
2023-02-06T21:30:32.285Z,17.50
2023-02-06T21:32:58.685Z,18.60
2023-02-06T21:35:28.594Z,17.75
2023-02-06T21:37:54.996Z,17.63
2023-02-06T21:40:21.496Z,16.70
2023-02-06T21:42:47.980Z,17.35
2023-02-06T21:45:14.542Z,19.15
2023-02-06T21:47:41.074Z,17.73
2023-02-06T21:50:08.042Z,18.77
2023-02-06T21:52:35.322Z,17.70
2023-02-06T21:55:01.848Z,18.30
2023-02-06T21:57:28.335Z,17.77
2023-02-06T21:59:54.746Z,18.77
2023-02-06T22:02:21.265Z,17.60
2023-02-06T22:04:47.666Z,19.13
2023-02-06T22:07:14.076Z,20.55
2023-02-06T22:09:40.485Z,18.63
2023-02-06T22:12:07.383Z,19.52
2023-02-06T22:14:35.104Z,20.17
2023-02-06T22:17:01.892Z,19.52
2023-02-06T22:19:28.329Z,18.35
2023-02-06T22:21:54.725Z,18.95
2023-02-06T22:24:21.332Z,19.15
2023-02-06T22:26:47.744Z,19.30
2023-02-06T22:29:15.904Z,18.60
2023-02-06T22:31:43.683Z,20.13
2023-02-06T22:34:16.205Z,19.10
2023-02-06T22:36:44.462Z,21.65
2023-02-06T22:39:14.983Z,22.60
2023-02-06T22:41:44.158Z,22.05
2023-02-06T22:44:16.403Z,21.67
2023-02-06T22:46:45.576Z,19.75
2023-02-06T22:49:12.425Z,20.98
2023-02-06T22:51:39.838Z,19.27
2023-02-06T22:54:09.319Z,22.27
2023-02-06T22:56:37.373Z,20.17
2023-02-06T22:59:10.912Z,20.77
2023-02-06T23:01:42.939Z,20.65
2023-02-06T23:04:21.702Z,20.60
2023-02-06T23:06:48.916Z,20.30
2023-02-06T23:09:18.901Z,21.27
2023-02-06T23:11:45.946Z,21.43
2023-02-06T23:14:13.838Z,23.13
2023-02-06T23:16:41.254Z,22.60
2023-02-06T23:19:08.493Z,22.27
2023-02-06T23:21:37.067Z,21.35
2023-02-06T23:24:05.713Z,22.33
2023-02-06T23:26:33.324Z,22.80
2023-02-06T23:29:01.916Z,21.70
2023-02-06T23:31:28.673Z,21.70
2023-02-06T23:33:55.873Z,22.88
2023-02-06T23:36:24.415Z,22.65
2023-02-06T23:38:51.839Z,21.45
2023-02-06T23:41:20.946Z,22.15
2023-02-06T23:43:52.021Z,21.90
2023-02-06T23:48:48.467Z,21.10
2023-02-06T23:51:15.358Z,21.52
2023-02-06T23:53:42.152Z,22.52
2023-02-06T23:56:22.966Z,23.98
2023-02-06T23:58:49.929Z,24.05
